createdAt,value
2017-09-25T07:44:27.374Z,0.14
2017-09-25T07:45:22.361Z,0.16
2017-09-25T07:46:16.326Z,0.18
2017-09-25T07:47:16.452Z,0.20
2017-09-25T07:49:13.857Z,0.24
2017-09-25T07:50:08.680Z,0.26
2017-09-25T07:51:02.929Z,0.27
2017-09-25T07:52:02.852Z,0.27
2017-09-25T07:52:58.066Z,0.31
2017-09-25T07:53:57.938Z,0.24
2017-09-25T07:54:58.059Z,0.23
2017-09-25T07:55:52.032Z,0.34
2017-09-25T07:56:47.164Z,0.35
2017-09-25T07:57:42.286Z,0.34
2017-09-25T07:58:31.198Z,0.34
2017-09-25T07:59:31.333Z,0.35
2017-09-25T08:00:31.378Z,0.34
2017-09-25T08:01:31.444Z,0.36
2017-09-25T08:02:20.453Z,0.36
2017-09-25T08:03:15.463Z,0.35
2017-09-25T08:04:09.592Z,0.36
2017-09-25T08:05:09.620Z,0.18
2017-09-25T08:06:03.138Z,0.19
2017-09-25T08:07:04.207Z,0.36
2017-09-25T08:07:59.368Z,0.38
2017-09-25T08:08:59.260Z,0.20
2017-09-25T08:09:48.891Z,0.35
2017-09-25T08:10:43.337Z,0.39
2017-09-25T08:11:43.357Z,0.40
2017-09-25T08:12:38.447Z,0.25
2017-09-25T08:13:32.948Z,0.22
2017-09-25T08:14:26.774Z,0.29
2017-09-25T08:15:15.112Z,0.37
2017-09-25T08:16:09.939Z,0.22
2017-09-25T08:17:09.992Z,0.22
2017-09-25T08:18:04.674Z,0.22
2017-09-25T08:18:59.259Z,0.24
2017-09-25T08:19:59.402Z,0.45
2017-09-25T08:20:53.295Z,0.46
2017-09-25T08:21:53.273Z,0.25
2017-09-25T08:22:47.433Z,0.23
2017-09-25T08:23:48.455Z,0.24
2017-09-25T08:24:42.285Z,0.25
2017-09-25T08:25:31.485Z,0.24
2017-09-25T08:26:19.618Z,0.23
2017-09-25T08:27:20.320Z,0.24
2017-09-25T08:28:09.631Z,0.26
2017-09-25T08:29:09.780Z,0.31
2017-09-25T08:29:57.764Z,0.27
2017-09-25T08:30:51.861Z,0.22
2017-09-25T08:31:45.802Z,0.28
2017-09-25T08:32:39.977Z,0.23
2017-09-25T08:33:35.018Z,0.19
2017-09-25T08:34:35.053Z,0.39
2017-09-25T08:35:35.093Z,0.19
2017-09-25T08:36:35.041Z,0.18
2017-09-25T08:37:29.149Z,0.18
2017-09-25T08:38:23.279Z,0.21
2017-09-25T08:39:23.275Z,0.20
2017-09-25T08:40:18.326Z,0.34
2017-09-25T08:41:18.312Z,0.28
2017-09-25T08:42:18.295Z,0.21
2017-09-25T08:43:12.400Z,0.46
2017-09-25T08:44:00.499Z,0.45
2017-09-25T08:44:54.572Z,0.21
2017-09-25T08:45:43.455Z,0.19
2017-09-25T08:46:31.649Z,0.39
2017-09-25T08:47:25.635Z,0.29
2017-09-25T08:48:20.828Z,0.38
2017-09-25T08:49:09.793Z,0.33
2017-09-25T08:50:04.829Z,0.34
2017-09-25T08:51:04.837Z,0.26
2017-09-25T08:51:58.808Z,0.36
2017-09-25T08:52:59.855Z,0.21
2017-09-25T08:54:00.997Z,0.19
2017-09-25T08:55:00.932Z,0.19
2017-09-25T08:55:56.084Z,0.20
2017-09-25T08:56:50.086Z,0.20
2017-09-25T08:57:50.140Z,0.40
2017-09-25T08:58:50.221Z,0.25
2017-09-25T08:59:50.286Z,0.26
2017-09-25T09:00:50.272Z,0.36
2017-09-25T09:01:50.370Z,0.41
2017-09-25T09:02:50.261Z,0.42
2017-09-25T09:03:49.914Z,0.51
2017-09-25T09:04:39.040Z,0.29
2017-09-25T09:05:33.544Z,0.30
2017-09-25T09:06:28.046Z,0.57
2017-09-25T09:07:17.127Z,0.57
2017-09-25T09:08:05.157Z,0.31
2017-09-25T09:08:59.344Z,0.56
2017-09-25T09:09:59.337Z,0.43
2017-09-25T09:10:53.704Z,0.51
2017-09-25T09:11:42.342Z,0.50
2017-09-25T09:12:36.751Z,0.48
2017-09-25T09:13:30.474Z,0.48
2017-09-25T09:14:25.954Z,0.55
2017-09-25T09:15:20.146Z,0.58
2017-09-25T09:16:14.197Z,0.57
2017-09-25T09:17:08.214Z,0.54
2017-09-25T09:18:03.283Z,0.30
2017-09-25T09:19:03.331Z,0.25
2017-09-25T09:19:57.420Z,0.25
2017-09-25T09:20:45.380Z,0.49
2017-09-25T09:21:40.525Z,0.43
2017-09-25T09:22:35.535Z,0.32
2017-09-25T09:23:23.659Z,0.25
2017-09-25T09:24:12.894Z,0.24
2017-09-25T09:25:07.319Z,0.31
2017-09-25T09:26:02.756Z,0.44
2017-09-25T09:27:02.849Z,0.45
2017-09-25T09:27:56.709Z,0.47
2017-09-25T09:28:51.910Z,0.50
2017-09-25T09:29:52.783Z,0.36
2017-09-25T09:30:47.645Z,0.29
2017-09-25T09:31:41.852Z,0.31
2017-09-25T09:32:37.034Z,0.34
2017-09-25T09:33:32.040Z,0.53
2017-09-25T09:34:32.216Z,0.38
2017-09-25T09:35:32.156Z,0.23
2017-09-25T09:36:26.339Z,0.22
2017-09-25T09:37:20.332Z,0.25
2017-09-25T09:38:20.425Z,0.34
2017-09-25T09:39:15.438Z,0.41
2017-09-25T09:40:09.515Z,0.29
2017-09-25T09:41:10.550Z,0.24
2017-09-25T09:42:04.597Z,0.25
2017-09-25T09:42:52.573Z,0.26
2017-09-25T09:43:47.136Z,0.25
2017-09-25T09:44:47.753Z,0.24
2017-09-25T09:45:42.829Z,0.21
2017-09-25T09:46:31.619Z,0.20
2017-09-25T09:47:25.437Z,0.22
2017-09-25T09:48:20.006Z,0.27
2017-09-25T09:49:14.217Z,0.30
2017-09-25T09:50:08.008Z,0.33
2017-09-25T09:51:01.990Z,0.28
2017-09-25T09:52:02.141Z,0.28
2017-09-25T09:52:51.228Z,0.28
2017-09-25T09:53:51.226Z,0.28
2017-09-25T09:54:45.136Z,0.30
2017-09-25T09:55:40.319Z,0.31
2017-09-25T09:56:28.805Z,0.31
2017-09-25T09:57:30.448Z,0.37
2017-09-25T09:58:29.908Z,0.27
2017-09-25T09:59:24.949Z,0.28
2017-09-25T10:00:20.594Z,0.31
2017-09-25T10:01:20.067Z,0.33
2017-09-25T10:02:15.078Z,0.34
2017-09-25T10:03:09.581Z,0.35
2017-09-25T10:04:09.869Z,0.35
2017-09-25T10:05:04.668Z,0.33
2017-09-25T10:05:53.305Z,0.31
2017-09-25T10:06:47.338Z,0.29
2017-09-25T10:07:41.666Z,0.27
2017-09-25T10:08:41.756Z,0.26
2017-09-25T10:09:35.967Z,0.26
2017-09-25T10:10:29.823Z,0.27
2017-09-25T10:11:25.128Z,0.29
2017-09-25T10:12:20.077Z,0.30
2017-09-25T10:13:09.380Z,0.30
2017-09-25T10:14:03.077Z,0.30
2017-09-25T10:15:03.365Z,0.31
2017-09-25T10:15:58.309Z,0.34
2017-09-25T10:16:52.390Z,0.38
2017-09-25T10:17:52.567Z,0.37
2017-09-25T10:18:46.480Z,0.37
2017-09-25T10:19:34.590Z,0.36
2017-09-25T10:20:28.596Z,0.35
2017-09-25T10:21:22.678Z,0.35
2017-09-25T10:22:11.732Z,0.34
2017-09-25T10:23:05.783Z,0.34
2017-09-25T10:24:00.901Z,0.31
2017-09-25T10:24:55.898Z,0.31
2017-09-25T10:25:56.010Z,0.31
2017-09-25T10:26:55.975Z,0.31
2017-09-25T10:27:56.006Z,0.32
2017-09-25T10:28:50.924Z,0.33
2017-09-25T10:29:45.109Z,0.43
2017-09-25T10:30:39.172Z,0.32
2017-09-25T10:31:27.211Z,0.30
2017-09-25T10:32:22.293Z,0.27
2017-09-25T10:33:22.358Z,0.26
2017-09-25T10:34:17.412Z,0.26
2017-09-25T10:35:10.847Z,0.27
2017-09-25T10:36:05.957Z,0.28
2017-09-25T10:37:00.957Z,0.28
2017-09-25T10:37:56.027Z,0.29
2017-09-25T10:38:51.296Z,0.30
2017-09-25T10:39:45.347Z,0.30
2017-09-25T10:40:39.144Z,0.28
2017-09-25T10:41:34.605Z,0.29
2017-09-25T10:42:22.245Z,0.30
2017-09-25T10:43:16.311Z,0.31
2017-09-25T10:44:11.009Z,0.33
2017-09-25T10:45:10.416Z,0.34
2017-09-25T10:46:05.609Z,0.34
2017-09-25T10:46:59.530Z,0.34
2017-09-25T10:47:59.577Z,0.34
2017-09-25T10:48:47.592Z,0.32
2017-09-25T10:49:47.667Z,0.31
2017-09-25T10:50:41.662Z,0.28
2017-09-25T10:51:36.265Z,0.27
2017-09-25T10:52:30.247Z,0.25
2017-09-25T10:53:23.836Z,0.25
2017-09-25T10:54:13.534Z,0.25
2017-09-25T10:55:08.414Z,0.25
2017-09-25T10:56:02.004Z,0.27
2017-09-25T10:57:02.039Z,0.29
2017-09-25T10:57:51.380Z,0.30
2017-09-25T10:58:40.351Z,0.31
2017-09-25T10:59:34.238Z,0.32
2017-09-25T11:00:29.255Z,0.32
2017-09-25T11:01:17.279Z,0.33
2017-09-25T11:02:11.328Z,0.33
2017-09-25T11:03:06.767Z,0.32
2017-09-25T11:04:07.116Z,0.32
2017-09-25T11:05:01.908Z,0.32
2017-09-25T11:05:55.561Z,0.33
2017-09-25T11:06:55.578Z,0.32
2017-09-25T11:07:50.674Z,0.31
2017-09-25T11:08:45.696Z,0.31
2017-09-25T11:09:45.769Z,0.32
2017-09-25T11:10:34.779Z,0.33
2017-09-25T11:11:28.834Z,0.32
2017-09-25T11:12:22.912Z,0.31
2017-09-25T11:13:17.260Z,0.31
2017-09-25T11:14:17.773Z,0.33
2017-09-25T11:15:17.376Z,0.34
2017-09-25T11:16:12.299Z,0.34
2017-09-25T11:17:12.652Z,0.34
2017-09-25T11:18:07.558Z,0.33
2017-09-25T11:18:56.487Z,0.33
2017-09-25T11:19:50.258Z,0.33
2017-09-25T11:20:44.629Z,0.32
2017-09-25T11:21:32.785Z,0.32
2017-09-25T11:22:32.447Z,0.32
2017-09-25T11:23:27.792Z,0.32
2017-09-25T11:24:21.881Z,0.32
2017-09-25T11:25:21.969Z,0.32
2017-09-25T11:26:15.625Z,0.31
2017-09-25T11:27:09.646Z,0.30
2017-09-25T11:28:03.721Z,0.29
2017-09-25T11:28:58.141Z,0.28
2017-09-25T11:29:58.233Z,0.27
2017-09-25T11:30:52.203Z,0.27
2017-09-25T11:31:51.986Z,0.27
2017-09-25T11:32:47.252Z,0.27
2017-09-25T11:33:41.499Z,0.26
2017-09-25T11:34:36.550Z,0.25
2017-09-25T11:35:30.106Z,0.24
2017-09-25T11:36:24.829Z,0.23
2017-09-25T11:37:18.645Z,0.22
2017-09-25T11:38:12.835Z,0.22
2017-09-25T11:39:12.982Z,0.21
2017-09-25T11:40:01.684Z,0.21
2017-09-25T11:40:56.908Z,0.21
2017-09-25T11:41:57.145Z,0.21
2017-09-25T11:42:51.318Z,0.20
2017-09-25T11:43:39.531Z,0.20
2017-09-25T11:44:27.612Z,0.20
2017-09-25T11:45:22.215Z,0.19
2017-09-25T11:46:15.924Z,0.19
2017-09-25T11:47:16.877Z,0.20
2017-09-25T11:48:06.130Z,0.19
2017-09-25T11:49:00.013Z,0.19
2017-09-25T11:50:00.037Z,0.20
2017-09-25T11:50:54.445Z,0.20
2017-09-25T11:51:49.443Z,0.21
2017-09-25T11:52:49.285Z,0.22
2017-09-25T11:53:43.636Z,0.23
2017-09-25T11:54:32.382Z,0.23
2017-09-25T11:55:26.756Z,0.24
2017-09-25T11:56:21.746Z,0.23
2017-09-25T11:57:16.756Z,0.23
2017-09-25T11:58:05.352Z,0.22
2017-09-25T11:58:53.451Z,0.22
2017-09-25T11:59:48.740Z,0.22
2017-09-25T12:00:48.501Z,0.21
2017-09-25T12:01:42.751Z,0.21
2017-09-25T12:02:43.748Z,0.21
2017-09-25T12:03:39.040Z,0.21
2017-09-25T12:04:38.626Z,0.22
2017-09-25T12:05:34.152Z,0.22
2017-09-25T12:06:34.975Z,0.22
2017-09-25T12:07:34.985Z,0.21
2017-09-25T12:08:24.263Z,0.20
2017-09-25T12:09:18.346Z,0.20
2017-09-25T12:10:13.414Z,0.21
2017-09-25T12:11:08.457Z,0.22
2017-09-25T12:12:02.934Z,0.22
2017-09-25T12:12:56.543Z,0.22
2017-09-25T12:13:56.559Z,0.22
2017-09-25T12:14:45.662Z,0.22
2017-09-25T12:15:39.660Z,0.22
2017-09-25T12:16:33.825Z,0.22
2017-09-25T12:17:22.260Z,0.22
2017-09-25T12:18:16.326Z,0.22
2017-09-25T12:19:17.171Z,0.22
2017-09-25T12:20:05.508Z,0.22
2017-09-25T12:20:59.520Z,0.22
2017-09-25T12:21:53.513Z,0.22
2017-09-25T12:22:59.547Z,0.22
2017-09-25T12:23:54.615Z,0.22
2017-09-25T12:24:48.636Z,0.22
2017-09-25T12:25:44.161Z,0.22
2017-09-25T12:26:39.002Z,0.22
2017-09-25T12:27:39.739Z,0.22
2017-09-25T12:28:35.179Z,0.22
2017-09-25T12:29:30.199Z,0.22
2017-09-25T12:30:24.446Z,0.21
2017-09-25T12:31:19.525Z,0.21
2017-09-25T12:32:19.425Z,0.21
2017-09-25T12:33:13.175Z,0.20
2017-09-25T12:34:02.621Z,0.20
2017-09-25T12:34:57.597Z,0.20
2017-09-25T12:35:57.639Z,0.20
2017-09-25T12:36:52.778Z,0.20
2017-09-25T12:37:46.802Z,0.20
2017-09-25T12:38:34.737Z,0.20
2017-09-25T12:39:28.804Z,0.20
2017-09-25T12:40:22.978Z,0.20
2017-09-25T12:41:18.031Z,0.20
2017-09-25T12:42:11.924Z,0.20
2017-09-25T12:43:06.962Z,0.21
2017-09-25T12:44:07.119Z,0.22
2017-09-25T12:45:02.205Z,0.22
2017-09-25T12:45:56.271Z,0.22
2017-09-25T12:46:56.294Z,0.22
2017-09-25T12:47:51.296Z,0.22
2017-09-25T12:48:45.325Z,0.22
2017-09-25T12:49:40.440Z,0.22
2017-09-25T12:50:35.496Z,0.22
2017-09-25T12:51:29.537Z,0.22
2017-09-25T12:52:29.520Z,0.24
2017-09-25T12:53:23.526Z,0.25
2017-09-25T12:54:29.134Z,0.25
2017-09-25T12:55:24.643Z,0.26
2017-09-25T12:56:13.819Z,0.26
2017-09-25T12:57:07.235Z,0.26
2017-09-25T12:58:07.585Z,0.25
2017-09-25T12:59:01.447Z,0.25
2017-09-25T13:00:01.361Z,0.25
2017-09-25T13:00:50.479Z,0.24
2017-09-25T13:01:44.523Z,0.24
2017-09-25T13:02:44.515Z,0.24
2017-09-25T13:03:38.547Z,0.23
2017-09-25T13:04:33.820Z,0.23
2017-09-25T13:05:34.638Z,0.22
2017-09-25T13:06:28.749Z,0.22
2017-09-25T13:07:28.746Z,0.21
2017-09-25T13:08:23.871Z,0.20
2017-09-25T13:09:19.601Z,0.20
2017-09-25T13:10:13.465Z,0.20
2017-09-25T13:11:08.465Z,0.20
2017-09-25T13:12:08.458Z,0.20
2017-09-25T13:13:02.478Z,0.20
2017-09-25T13:13:56.428Z,0.20
2017-09-25T13:14:56.647Z,0.20
2017-09-25T13:15:50.627Z,0.19
2017-09-25T13:16:44.714Z,0.19
2017-09-25T13:17:44.822Z,0.19
2017-09-25T13:18:38.810Z,0.19
2017-09-25T13:19:39.803Z,0.19
2017-09-25T13:20:34.862Z,0.19
2017-09-25T13:21:34.902Z,0.19
2017-09-25T13:22:34.964Z,0.19
2017-09-25T13:23:35.036Z,0.20
2017-09-25T13:24:30.068Z,0.20
2017-09-25T13:25:24.043Z,0.20
2017-09-25T13:26:19.187Z,0.20
2017-09-25T13:27:13.193Z,0.20
2017-09-25T13:28:08.203Z,0.20
2017-09-25T13:29:08.241Z,0.20
2017-09-25T13:30:02.386Z,0.20
2017-09-25T13:31:02.360Z,0.20
2017-09-25T13:31:56.383Z,0.21
2017-09-25T13:32:51.383Z,0.21
2017-09-25T13:33:51.496Z,0.21
2017-09-25T13:34:46.418Z,0.22
2017-09-25T13:35:40.583Z,0.22
2017-09-25T13:36:35.647Z,0.22
2017-09-25T13:37:29.683Z,0.22
2017-09-25T13:38:29.727Z,0.22
2017-09-25T13:39:23.710Z,0.22
2017-09-25T13:40:23.767Z,0.22
2017-09-25T13:41:23.897Z,0.22
2017-09-25T13:42:17.883Z,0.22
2017-09-25T13:43:19.017Z,0.21
2017-09-25T13:44:13.081Z,0.21
2017-09-25T13:45:12.934Z,0.20
2017-09-25T13:46:07.086Z,0.20
2017-09-25T13:47:07.100Z,0.20
2017-09-25T13:48:02.197Z,0.20
2017-09-25T13:48:57.236Z,0.20
2017-09-25T13:49:52.300Z,0.20
2017-09-25T13:50:46.289Z,0.20
2017-09-25T13:51:41.496Z,0.19
2017-09-25T13:52:41.450Z,0.19
2017-09-25T13:53:35.476Z,0.19
2017-09-25T13:54:29.475Z,0.19
2017-09-25T13:55:18.437Z,0.19
2017-09-25T13:56:06.608Z,0.19
2017-09-25T13:57:06.662Z,0.19
2017-09-25T13:57:55.678Z,0.19
2017-09-25T14:03:50.046Z,0.17
2017-09-25T14:04:39.025Z,0.17
2017-09-25T14:05:39.070Z,0.17
2017-09-25T14:06:33.097Z,0.17
2017-09-25T14:07:27.130Z,0.17
2017-09-25T14:08:21.866Z,0.17
2017-09-25T14:09:16.388Z,0.17
2017-09-25T14:10:04.060Z,0.16
2017-09-25T14:10:58.837Z,0.16
2017-09-25T14:11:52.852Z,0.16
2017-09-25T14:12:42.261Z,0.16
2017-09-25T14:13:36.338Z,0.16
2017-09-25T14:14:36.553Z,0.15
2017-09-25T14:15:30.042Z,0.15
2017-09-25T14:16:25.595Z,0.15
2017-09-25T14:17:25.614Z,0.15
2017-09-25T14:18:19.738Z,0.15
2017-09-25T14:19:19.861Z,0.14
2017-09-25T14:20:13.818Z,0.14
2017-09-25T14:21:02.324Z,0.14
2017-09-25T14:21:56.705Z,0.14
2017-09-25T14:22:45.601Z,0.14
2017-09-25T14:23:39.579Z,0.14
2017-09-25T14:24:40.704Z,0.14
2017-09-25T14:25:34.600Z,0.14
2017-09-25T14:26:29.620Z,0.14
2017-09-25T14:27:23.819Z,0.14
2017-09-25T14:28:18.904Z,0.14
2017-09-25T14:29:14.381Z,0.13
2017-09-25T14:30:09.029Z,0.13
2017-09-25T14:31:04.091Z,0.13
2017-09-25T14:31:58.893Z,0.13
2017-09-25T14:33:05.258Z,0.14
2017-09-25T14:34:00.279Z,0.14
2017-09-25T14:34:55.168Z,0.14
2017-09-25T14:35:49.434Z,0.15
2017-09-25T14:36:49.540Z,0.15
2017-09-25T14:37:49.118Z,0.16
2017-09-25T14:38:44.155Z,0.16
2017-09-25T14:39:38.733Z,0.16
2017-09-25T14:40:32.795Z,0.16
2017-09-25T14:41:32.300Z,0.16
2017-09-25T14:42:21.918Z,0.16
2017-09-25T14:43:16.923Z,0.16
2017-09-25T14:44:27.770Z,0.15
2017-09-25T14:45:18.030Z,0.15
2017-09-25T14:46:12.910Z,0.15
2017-09-25T14:47:13.045Z,0.14
2017-09-25T14:48:08.043Z,0.14
2017-09-25T14:49:03.110Z,0.13
2017-09-25T14:49:51.163Z,0.13
2017-09-25T14:50:52.231Z,0.12
2017-09-25T14:51:53.302Z,0.11
2017-09-25T14:52:53.223Z,0.11
2017-09-25T14:53:47.353Z,0.10
2017-09-25T14:54:42.313Z,0.10
2017-09-25T14:55:37.468Z,0.09
2017-09-25T14:56:31.430Z,0.09
2017-09-25T14:57:26.410Z,0.09
2017-09-25T14:58:26.563Z,0.09
2017-09-25T14:59:21.770Z,0.08
2017-09-25T15:00:21.543Z,0.08
2017-09-25T15:01:15.681Z,0.08
2017-09-25T15:02:15.681Z,0.07
2017-09-25T15:03:09.719Z,0.07
2017-09-25T15:04:04.756Z,0.07
2017-09-25T15:04:58.930Z,0.07
2017-09-25T15:05:53.837Z,0.07
2017-09-25T15:06:47.839Z,0.06
2017-09-25T15:07:47.905Z,0.06
2017-09-25T15:08:43.222Z,0.06
2017-09-25T15:09:38.035Z,0.06
2017-09-25T15:10:26.114Z,0.06
2017-09-25T15:11:15.063Z,0.06
2017-09-25T15:12:15.155Z,0.06
2017-09-25T15:13:10.212Z,0.06
2017-09-25T15:13:58.227Z,0.06
2017-09-25T15:14:58.243Z,0.06
2017-09-25T15:15:52.322Z,0.06
2017-09-25T15:16:47.330Z,0.05
2017-09-25T15:17:47.387Z,0.05
2017-09-25T15:18:41.434Z,0.05
2017-09-25T15:19:30.503Z,0.05
2017-09-25T15:20:25.508Z,0.05
2017-09-25T15:21:25.557Z,0.05
2017-09-25T15:22:20.654Z,0.05
2017-09-25T15:23:15.611Z,0.05
2017-09-25T15:24:09.871Z,0.05
2017-09-25T15:25:04.710Z,0.05
2017-09-25T15:25:58.757Z,0.05
2017-09-25T15:26:58.796Z,0.05
2017-09-25T15:27:53.832Z,0.05
2017-09-25T15:28:47.909Z,0.05
2017-09-25T15:29:42.612Z,0.05
2017-09-25T15:30:42.569Z,0.05
2017-09-25T15:31:31.613Z,0.05
2017-09-25T15:32:25.702Z,0.05
2017-09-25T15:33:20.709Z,0.06
2017-09-25T15:34:15.532Z,0.06
2017-09-25T15:35:09.125Z,0.06
2017-09-25T15:36:02.950Z,0.06
2017-09-25T15:36:58.121Z,0.06
2017-09-25T15:37:57.959Z,0.06
2017-09-25T15:38:53.321Z,0.06
2017-09-25T15:39:53.335Z,0.06
2017-09-25T15:40:47.427Z,0.06
2017-09-25T15:41:48.505Z,0.06
2017-09-25T15:42:43.097Z,0.06
2017-09-25T15:43:37.497Z,0.06
2017-09-25T15:44:37.156Z,0.06
2017-09-25T15:45:37.223Z,0.05
2017-09-25T15:46:37.266Z,0.06
2017-09-25T15:47:32.310Z,0.06
2017-09-25T15:48:26.902Z,0.06
2017-09-25T15:49:27.018Z,0.06
2017-09-25T15:50:21.444Z,0.06
2017-09-25T15:51:16.488Z,0.06
2017-09-25T15:52:11.130Z,0.06
2017-09-25T15:53:10.547Z,0.06
2017-09-25T15:54:04.741Z,0.06
2017-09-25T15:55:05.838Z,0.06
2017-09-25T15:56:06.693Z,0.06
2017-09-25T15:57:00.742Z,0.06
2017-09-25T15:57:49.761Z,0.06
2017-09-25T15:58:43.813Z,0.06
2017-09-25T15:59:44.372Z,0.06
2017-09-25T16:00:37.911Z,0.06
2017-09-25T16:01:33.259Z,0.06
2017-09-25T16:02:33.943Z,0.06
2017-09-25T16:03:34.042Z,0.06
2017-09-25T16:04:28.231Z,0.06
2017-09-25T16:05:23.145Z,0.06
2017-09-25T16:06:17.139Z,0.06
2017-09-25T16:07:17.141Z,0.06
2017-09-25T16:08:06.708Z,0.05
2017-09-25T16:08:54.240Z,0.05
2017-09-25T16:09:54.309Z,0.05
2017-09-25T16:10:49.509Z,0.05
2017-09-25T16:11:38.499Z,0.05
2017-09-25T16:12:27.425Z,0.05
2017-09-25T16:13:21.446Z,0.05
2017-09-25T16:14:17.155Z,0.05
2017-09-25T16:15:04.904Z,0.05
2017-09-25T16:16:11.042Z,0.05
2017-09-25T16:16:59.650Z,0.05
2017-09-25T16:17:48.658Z,0.05
2017-09-25T16:18:37.724Z,0.05
2017-09-25T16:19:32.035Z,0.06
2017-09-25T16:20:31.988Z,0.06
2017-09-25T16:21:20.834Z,0.06
2017-09-25T16:22:21.227Z,0.06
2017-09-25T16:23:14.929Z,0.06
2017-09-25T16:24:15.630Z,0.06
2017-09-25T16:25:09.742Z,0.06
2017-09-25T16:25:58.057Z,0.05
2017-09-25T16:26:46.096Z,0.05
2017-09-25T16:27:34.193Z,0.05
2017-09-25T16:28:23.422Z,0.05
2017-09-25T16:29:18.881Z,0.05
2017-09-25T16:30:18.794Z,0.05
2017-09-25T16:31:13.893Z,0.05
2017-09-25T16:32:07.939Z,0.05
2017-09-25T16:33:07.666Z,0.04
2017-09-25T16:33:56.457Z,0.04
2017-09-25T16:34:51.487Z,0.04
2017-09-25T16:35:46.712Z,0.04
2017-09-25T16:36:40.566Z,0.04
2017-09-25T16:37:29.602Z,0.04
2017-09-25T16:38:23.812Z,0.04
2017-09-25T16:39:12.292Z,0.04
2017-09-25T16:40:11.736Z,0.04
2017-09-25T16:41:12.072Z,0.04
2017-09-25T16:42:05.832Z,0.04
2017-09-25T16:42:59.863Z,0.04
2017-09-25T16:43:54.321Z,0.04
2017-09-25T16:44:48.930Z,0.04
2017-09-25T16:45:43.027Z,0.04
2017-09-25T16:46:43.046Z,0.03
2017-09-25T16:47:37.040Z,0.03
2017-09-25T16:48:37.090Z,0.03
2017-09-25T16:49:32.157Z,0.03
2017-09-25T16:50:32.598Z,0.03
2017-09-25T16:51:26.724Z,0.03
2017-09-25T16:52:20.251Z,0.03
2017-09-25T16:53:20.314Z,0.03
2017-09-25T16:54:09.327Z,0.03
2017-09-25T16:54:57.415Z,0.03
2017-09-25T16:55:51.609Z,0.03
2017-09-25T16:56:40.526Z,0.03
2017-09-25T16:57:34.616Z,0.02
2017-09-25T16:58:34.549Z,0.02
2017-09-25T16:59:28.555Z,0.02
2017-09-25T17:00:17.658Z,0.02
2017-09-25T17:01:18.202Z,0.02
2017-09-25T17:02:06.782Z,0.02
2017-09-25T17:03:00.749Z,0.02
2017-09-25T17:03:49.808Z,0.02
2017-09-25T17:04:43.834Z,0.02
2017-09-25T17:05:39.267Z,0.02
2017-09-25T17:06:39.106Z,0.02
2017-09-25T17:07:27.358Z,0.02
2017-09-25T17:08:15.018Z,0.02
2017-09-25T17:09:04.048Z,0.01
2017-09-25T17:09:58.127Z,0.01
2017-09-25T17:10:47.155Z,0.01
2017-09-25T17:11:42.181Z,0.01
2017-09-25T17:12:42.238Z,0.01
2017-09-25T17:13:36.243Z,0.01
2017-09-25T17:14:36.303Z,0.01
2017-09-25T17:15:31.662Z,0.01
2017-09-25T17:16:26.816Z,0.01
2017-09-25T17:17:15.429Z,0.00
2017-09-25T17:18:10.444Z,0.00
2017-09-25T17:18:58.522Z,0.00
2017-09-25T17:19:47.573Z,0.00
2017-09-25T17:20:35.610Z,0.00
2017-09-25T17:21:24.719Z,0.00
2017-09-25T17:22:12.748Z,0.00
2017-09-25T17:23:00.740Z,0.00
2017-09-25T17:23:48.818Z,0.00
2017-09-25T17:24:37.849Z,0.00
2017-09-25T17:25:37.853Z,0.00
2017-09-25T17:26:32.255Z,0.00
2017-09-25T17:27:26.989Z,0.00
2017-09-25T17:28:26.993Z,0.00
2017-09-25T17:29:16.624Z,0.00
2017-09-25T17:30:16.037Z,0.00
2017-09-25T17:31:10.291Z,0.00
2017-09-25T17:32:10.202Z,0.00
2017-09-25T17:32:59.205Z,0.00
2017-09-25T17:33:53.221Z,0.00
2017-09-25T17:34:48.299Z,0.00
2017-09-25T17:35:48.323Z,0.00
2017-09-25T17:36:48.339Z,0.00
2017-09-25T17:37:48.339Z,0.00
2017-09-25T17:38:48.450Z,0.00
2017-09-25T17:39:42.936Z,0.00
2017-09-25T17:40:42.883Z,0.00
2017-09-25T17:41:37.528Z,0.00
2017-09-25T17:42:33.103Z,0.00
2017-09-25T17:43:32.985Z,0.00
2017-09-25T17:44:28.234Z,0.00
2017-09-25T17:45:27.629Z,0.00
2017-09-25T17:46:16.700Z,0.00
2017-09-25T17:47:04.731Z,0.00
2017-09-25T17:47:52.753Z,0.00
2017-09-25T17:48:46.989Z,0.00
2017-09-25T17:49:41.469Z,0.00
2017-09-25T17:50:35.906Z,0.00
2017-09-25T17:51:23.936Z,0.00
2017-09-25T17:52:13.001Z,0.00
2017-09-25T17:53:13.201Z,0.00
2017-09-25T17:54:08.050Z,0.00
2017-09-25T17:55:08.669Z,0.00
2017-09-25T17:56:02.136Z,0.00
2017-09-25T17:56:51.166Z,0.00
2017-09-25T17:57:39.715Z,0.00
2017-09-25T17:58:27.242Z,0.00
2017-09-25T17:59:27.793Z,0.00
2017-09-25T18:00:16.592Z,0.00
2017-09-25T18:01:04.579Z,0.00
2017-09-25T18:01:58.419Z,0.00
2017-09-25T18:02:47.451Z,0.00
2017-09-25T18:03:47.506Z,0.00
2017-09-25T18:04:36.940Z,0.00
2017-09-25T18:05:25.724Z,0.00
2017-09-25T18:06:26.597Z,0.00
2017-09-25T18:07:27.807Z,0.00
2017-09-25T18:08:21.655Z,0.00
2017-09-25T18:09:22.227Z,0.00
2017-09-25T18:10:15.711Z,0.00
2017-09-25T18:11:09.817Z,0.00
2017-09-25T18:12:10.102Z,0.00
2017-09-25T18:13:03.843Z,0.00
2017-09-25T18:13:58.920Z,0.00
2017-09-25T18:14:54.252Z,0.00
2017-09-25T18:15:53.953Z,0.00
2017-09-25T18:16:43.315Z,0.00
2017-09-25T18:17:32.447Z,0.00
2017-09-25T18:18:21.092Z,0.00
2017-09-25T18:19:09.592Z,0.00
2017-09-25T18:19:57.516Z,0.00
2017-09-25T18:20:46.240Z,0.00
2017-09-25T18:21:40.277Z,0.00
2017-09-25T18:22:29.447Z,0.00
2017-09-25T18:23:29.338Z,0.00
2017-09-25T18:24:23.646Z,0.00
2017-09-25T18:25:23.418Z,0.00
2017-09-25T18:26:18.451Z,0.00
2017-09-25T18:27:13.517Z,0.00
2017-09-25T18:28:13.535Z,0.00
2017-09-25T18:29:08.629Z,0.00
2017-09-25T18:30:04.286Z,0.00
2017-09-25T18:31:03.633Z,0.00
2017-09-25T18:31:58.826Z,0.00
2017-09-25T18:32:53.708Z,0.00
2017-09-25T18:33:54.737Z,0.00
2017-09-25T18:34:50.337Z,0.00
2017-09-25T18:35:44.323Z,0.00
2017-09-25T18:36:43.845Z,0.00
2017-09-25T18:37:39.083Z,0.00
2017-09-25T18:38:33.931Z,0.00
2017-09-25T18:39:34.469Z,0.00
2017-09-25T18:40:29.438Z,0.00
2017-09-25T18:41:24.406Z,0.00
2017-09-25T18:42:25.450Z,0.00
2017-09-25T18:43:25.091Z,0.00
2017-09-25T18:44:19.555Z,0.00
2017-09-25T18:45:13.232Z,0.00
2017-09-25T18:46:02.230Z,0.00
2017-09-25T18:46:57.238Z,0.00
2017-09-25T18:47:51.658Z,0.00
2017-09-25T18:48:39.352Z,0.00
2017-09-25T18:49:27.591Z,0.00
2017-09-25T18:50:15.403Z,0.00
2017-09-25T18:51:09.466Z,0.00
2017-09-25T18:51:58.003Z,0.00
2017-09-25T18:52:51.532Z,0.00
2017-09-25T18:53:40.021Z,0.00
2017-09-25T18:54:33.742Z,0.00
2017-09-25T18:55:33.726Z,0.00
2017-09-25T18:56:33.668Z,0.00
2017-09-25T18:57:27.761Z,0.00
2017-09-25T18:58:28.176Z,0.00
2017-09-25T18:59:23.230Z,0.00
2017-09-25T19:00:11.222Z,0.00
2017-09-25T19:00:58.921Z,0.00
2017-09-25T19:01:46.930Z,0.00
2017-09-25T19:02:41.100Z,0.00
2017-09-25T19:03:29.038Z,0.00
2017-09-25T19:04:18.379Z,0.00
2017-09-25T19:05:12.311Z,0.00
2017-09-25T19:06:01.284Z,0.00
2017-09-25T19:06:50.289Z,0.00
2017-09-25T19:07:45.360Z,0.00
2017-09-25T19:08:39.720Z,0.00
2017-09-25T19:09:39.792Z,0.00
2017-09-25T19:10:33.305Z,0.00
2017-09-25T19:11:22.699Z,0.00
2017-09-25T19:12:17.452Z,0.00
2017-09-25T19:13:11.733Z,0.00
2017-09-25T19:14:05.869Z,0.00
2017-09-25T19:15:06.099Z,0.00
2017-09-25T19:16:06.110Z,0.00
2017-09-25T19:17:00.857Z,0.00
2017-09-25T19:17:55.046Z,0.00
2017-09-25T19:18:55.025Z,0.00
2017-09-25T19:19:50.112Z,0.00
2017-09-25T19:20:44.720Z,0.00
2017-09-25T19:21:51.275Z,0.00
2017-09-25T19:22:45.183Z,0.00
2017-09-25T19:23:44.814Z,0.00
2017-09-25T19:24:40.390Z,0.00
2017-09-25T19:25:40.072Z,0.00
2017-09-25T19:26:33.924Z,0.00
2017-09-25T19:27:33.936Z,0.00
2017-09-25T19:28:29.043Z,0.00
2017-09-25T19:29:24.544Z,0.00
2017-09-25T19:30:24.085Z,0.00
2017-09-25T19:31:24.127Z,0.00
2017-09-25T19:32:18.502Z,0.00
2017-09-25T19:33:12.498Z,0.00
2017-09-25T19:34:18.769Z,0.00
2017-09-25T19:35:18.223Z,0.00
2017-09-25T19:36:06.451Z,0.00
2017-09-25T19:36:55.317Z,0.00
2017-09-25T19:37:43.401Z,0.00
2017-09-25T19:38:31.442Z,0.00
2017-09-25T19:39:20.122Z,0.00
2017-09-25T19:40:08.035Z,0.00
2017-09-25T19:40:55.529Z,0.00
2017-09-25T19:41:43.543Z,0.00
2017-09-25T19:42:31.625Z,0.00
2017-09-25T19:43:20.681Z,0.00
2017-09-25T19:44:08.712Z,0.00
2017-09-25T19:44:57.336Z,0.00
2017-09-25T19:45:45.801Z,0.00
2017-09-25T19:46:33.823Z,0.00
2017-09-25T19:47:21.873Z,0.00
2017-09-25T19:48:10.313Z,0.00
2017-09-25T19:48:58.976Z,0.00
2017-09-25T19:49:47.587Z,0.00
2017-09-25T19:50:36.038Z,0.00
2017-09-25T19:51:24.129Z,0.00
2017-09-25T19:52:12.118Z,0.00
2017-09-25T19:53:00.353Z,0.00
2017-09-25T19:53:49.219Z,0.00
2017-09-25T19:54:37.773Z,0.00
2017-09-25T19:55:26.307Z,0.00
2017-09-25T19:56:21.559Z,0.00
2017-09-25T19:57:15.402Z,0.00
2017-09-25T19:58:15.431Z,0.00
2017-09-25T19:59:10.867Z,0.00
2017-09-25T20:00:16.497Z,0.00